createdAt,value
2018-01-28T00:01:49.696Z,7.28
2018-01-28T00:04:16.566Z,7.32
2018-01-28T00:06:43.444Z,7.00
2018-01-28T00:09:10.293Z,6.80
2018-01-28T00:11:37.201Z,7.43
2018-01-28T00:14:04.097Z,7.15
2018-01-28T00:16:31.212Z,6.45
2018-01-28T00:18:58.073Z,6.87
2018-01-28T00:21:24.912Z,6.75
2018-01-28T00:23:51.868Z,7.10
2018-01-28T00:26:18.728Z,7.18
2018-01-28T00:28:45.707Z,6.50
2018-01-28T00:31:12.626Z,7.20
2018-01-28T00:33:39.509Z,6.93
2018-01-28T00:36:06.376Z,6.35
2018-01-28T00:38:33.243Z,6.90
2018-01-28T00:41:00.862Z,7.30
2018-01-28T00:43:27.772Z,7.97
2018-01-28T00:45:55.390Z,7.18
2018-01-28T00:48:22.282Z,6.80
2018-01-28T00:50:49.144Z,6.80
2018-01-28T00:53:16.012Z,6.70
2018-01-28T00:55:42.863Z,6.90
2018-01-28T00:58:09.766Z,6.80
2018-01-28T01:00:36.620Z,7.25
2018-01-28T01:03:03.501Z,7.72
2018-01-28T01:05:30.417Z,7.45
2018-01-28T01:07:57.313Z,8.20
2018-01-28T01:10:24.222Z,7.15
2018-01-28T01:12:51.098Z,7.37
2018-01-28T01:15:17.961Z,8.00
2018-01-28T01:17:44.869Z,8.65
2018-01-28T01:20:11.740Z,8.27
2018-01-28T01:22:38.630Z,8.98
2018-01-28T01:25:05.517Z,8.65
2018-01-28T01:27:32.441Z,8.60
2018-01-28T01:29:59.292Z,8.20
2018-01-28T01:32:26.219Z,7.80
2018-01-28T01:34:53.117Z,7.90
2018-01-28T01:37:19.980Z,8.27
2018-01-28T01:39:46.893Z,7.60
2018-01-28T01:42:13.740Z,7.85
2018-01-28T01:44:40.659Z,7.87
2018-01-28T01:47:07.540Z,8.18
2018-01-28T01:49:34.408Z,7.95
2018-01-28T01:52:01.288Z,8.00
2018-01-28T01:54:28.169Z,7.50
2018-01-28T01:56:55.044Z,7.43
2018-01-28T01:59:21.997Z,7.30
2018-01-28T02:01:48.917Z,7.25
2018-01-28T02:04:15.829Z,7.50
2018-01-28T02:06:42.721Z,8.00
2018-01-28T02:09:09.584Z,7.72
2018-01-28T02:11:36.497Z,8.15
2018-01-28T02:14:03.389Z,8.60
2018-01-28T02:16:30.769Z,9.30
2018-01-28T02:18:57.652Z,9.18
2018-01-28T02:21:24.541Z,8.60
2018-01-28T02:23:51.490Z,8.32
2018-01-28T02:26:18.384Z,8.50
2018-01-28T02:28:45.244Z,8.30
2018-01-28T02:31:12.104Z,7.40
2018-01-28T02:33:39.045Z,7.07
2018-01-28T02:36:05.933Z,7.15
2018-01-28T02:38:32.796Z,7.07
2018-01-28T02:40:59.697Z,7.20
2018-01-28T02:43:26.686Z,7.00
2018-01-28T02:45:53.585Z,7.00
2018-01-28T02:48:20.514Z,7.70
2018-01-28T02:50:47.418Z,7.60
2018-01-28T02:53:14.317Z,7.20
2018-01-28T02:55:41.182Z,6.18
2018-01-28T02:58:08.037Z,5.80
2018-01-28T03:00:34.941Z,5.60
2018-01-28T03:03:01.873Z,5.10
2018-01-28T03:05:28.727Z,5.22
2018-01-28T03:07:55.637Z,4.75
2018-01-28T03:10:22.480Z,5.00
2018-01-28T03:12:49.363Z,5.03
2018-01-28T03:15:16.265Z,4.60
2018-01-28T03:17:43.157Z,4.87
2018-01-28T03:20:10.089Z,5.30
2018-01-28T03:22:36.997Z,5.00
2018-01-28T03:25:03.864Z,5.00
2018-01-28T03:27:30.817Z,5.75
2018-01-28T03:29:57.973Z,5.40
2018-01-28T03:32:25.121Z,5.30
2018-01-28T03:34:52.035Z,5.10
2018-01-28T03:37:18.896Z,4.80
2018-01-28T03:39:45.797Z,5.00
2018-01-28T03:42:12.661Z,5.25
2018-01-28T03:44:39.854Z,5.00
2018-01-28T03:47:06.736Z,4.80
2018-01-28T03:49:33.624Z,4.30
2018-01-28T03:52:00.509Z,4.30
2018-01-28T03:54:27.457Z,4.22
2018-01-28T03:56:54.350Z,4.12
2018-01-28T03:59:21.237Z,4.20
2018-01-28T04:01:48.113Z,3.90
2018-01-28T04:04:14.984Z,3.97
2018-01-28T04:06:41.857Z,3.90
2018-01-28T04:09:08.736Z,4.30
2018-01-28T04:11:35.632Z,3.78
2018-01-28T04:14:02.476Z,3.63
2018-01-28T04:16:29.365Z,4.40
2018-01-28T04:18:56.334Z,4.20
2018-01-28T04:21:23.196Z,4.35
2018-01-28T04:23:50.041Z,4.20
2018-01-28T04:26:16.892Z,4.60
2018-01-28T04:28:43.797Z,4.80
2018-01-28T04:31:11.062Z,5.50
2018-01-28T04:33:37.954Z,5.03
2018-01-28T04:36:04.816Z,5.53
2018-01-28T04:38:31.753Z,5.20
2018-01-28T04:40:58.612Z,5.93
2018-01-28T04:43:25.490Z,5.70
2018-01-28T04:45:52.374Z,6.20
2018-01-28T04:48:19.257Z,6.25
2018-01-28T04:50:46.137Z,6.30
2018-01-28T04:53:13.026Z,6.50
2018-01-28T04:55:39.896Z,6.62
2018-01-28T04:58:06.797Z,6.57
2018-01-28T05:00:33.680Z,7.15
2018-01-28T05:03:00.584Z,6.80
2018-01-28T05:05:27.484Z,7.10
2018-01-28T05:07:54.328Z,6.53
2018-01-28T05:10:21.184Z,7.28
2018-01-28T05:12:48.070Z,7.17
2018-01-28T05:15:14.981Z,7.30
2018-01-28T05:17:41.834Z,6.93
2018-01-28T05:20:08.725Z,7.20
2018-01-28T05:22:35.658Z,7.43
2018-01-28T05:25:02.527Z,7.40
2018-01-28T05:27:29.388Z,7.07
2018-01-28T05:29:56.244Z,7.55
2018-01-28T05:32:23.162Z,7.50
2018-01-28T05:34:50.045Z,7.80
2018-01-28T05:37:16.910Z,8.18
2018-01-28T05:39:43.835Z,7.97
2018-01-28T05:42:10.986Z,7.75
2018-01-28T05:44:37.881Z,8.20
2018-01-28T05:47:04.766Z,7.70
2018-01-28T05:49:31.660Z,8.25
2018-01-28T05:51:58.534Z,8.55
2018-01-28T05:54:25.453Z,9.05
2018-01-28T05:56:52.296Z,9.17
2018-01-28T05:59:19.161Z,8.85
2018-01-28T06:01:46.008Z,9.23
2018-01-28T06:04:12.899Z,9.00
2018-01-28T06:06:39.794Z,8.80
2018-01-28T06:09:06.697Z,8.90
2018-01-28T06:11:33.584Z,9.00
2018-01-28T06:14:00.448Z,8.50
2018-01-28T06:16:27.308Z,8.65
2018-01-28T06:18:54.186Z,8.40
2018-01-28T06:21:21.078Z,8.30
2018-01-28T06:23:47.974Z,8.40
2018-01-28T06:26:14.857Z,7.97
2018-01-28T06:28:41.761Z,8.43
2018-01-28T06:31:08.650Z,7.93
2018-01-28T06:33:35.503Z,8.10
2018-01-28T06:36:02.398Z,7.80
2018-01-28T06:38:29.601Z,7.45
2018-01-28T06:40:56.516Z,7.43
2018-01-28T06:43:23.411Z,7.40
2018-01-28T06:45:50.261Z,6.78
2018-01-28T06:48:17.165Z,6.65
2018-01-28T06:50:44.030Z,6.85
2018-01-28T06:53:10.918Z,6.15
2018-01-28T06:55:37.805Z,6.28
2018-01-28T06:58:04.724Z,5.60
2018-01-28T07:00:31.568Z,5.62
2018-01-28T07:02:58.428Z,5.67
2018-01-28T07:05:25.292Z,4.80
2018-01-28T07:07:52.166Z,4.80
2018-01-28T07:10:19.069Z,4.72
2018-01-28T07:12:45.918Z,5.12
2018-01-28T07:15:12.798Z,5.28
2018-01-28T07:17:39.722Z,5.25
2018-01-28T07:20:06.692Z,5.05
2018-01-28T07:22:34.389Z,4.70
2018-01-28T07:25:01.275Z,4.53
2018-01-28T07:27:28.164Z,5.20
2018-01-28T07:29:55.008Z,5.20
2018-01-28T07:32:21.865Z,4.90
2018-01-28T07:34:48.857Z,5.12
2018-01-28T07:37:15.730Z,5.53
2018-01-28T07:39:42.935Z,5.03
2018-01-28T07:42:09.810Z,5.35
2018-01-28T07:44:37.033Z,4.60
2018-01-28T07:47:03.892Z,5.63
2018-01-28T07:49:30.740Z,5.40
2018-01-28T07:51:58.770Z,4.12
2018-01-28T07:54:25.650Z,5.35
2018-01-28T07:56:52.519Z,5.07
2018-01-28T07:59:19.394Z,4.97
2018-01-28T08:01:46.264Z,4.97
2018-01-28T08:04:13.192Z,5.20
2018-01-28T08:06:40.078Z,6.12
2018-01-28T08:09:06.965Z,9.55
2018-01-28T08:11:33.861Z,5.07
2018-01-28T08:14:01.480Z,4.60
2018-01-28T08:16:28.555Z,5.00
2018-01-28T08:18:55.809Z,4.62
2018-01-28T08:21:22.686Z,4.53
2018-01-28T08:23:49.560Z,5.00
2018-01-28T08:26:16.497Z,5.62
2018-01-28T08:28:43.372Z,5.20
2018-01-28T08:31:10.253Z,4.72
2018-01-28T08:33:37.131Z,4.72
2018-01-28T08:36:04.024Z,5.15
2018-01-28T08:38:30.909Z,4.97
2018-01-28T08:40:58.097Z,5.40
2018-01-28T08:43:25.034Z,5.40
2018-01-28T08:45:51.896Z,5.30
2018-01-28T08:48:18.772Z,6.15
2018-01-28T08:50:45.650Z,4.78
2018-01-28T08:53:12.500Z,5.07
2018-01-28T08:55:39.352Z,4.77
2018-01-28T08:58:06.246Z,5.10
2018-01-28T09:00:33.166Z,4.60
2018-01-28T09:03:00.062Z,5.68
2018-01-28T09:05:26.928Z,4.97
2018-01-28T09:07:53.776Z,6.43
2018-01-28T09:10:20.668Z,5.28
2018-01-28T09:12:47.893Z,5.30
2018-01-28T09:15:14.777Z,4.50
2018-01-28T09:17:41.660Z,4.90
2018-01-28T09:20:08.516Z,5.07
2018-01-28T09:22:35.397Z,4.93
2018-01-28T09:25:02.308Z,5.10
2018-01-28T09:27:29.233Z,5.25
2018-01-28T09:29:56.114Z,5.00
2018-01-28T09:32:23.247Z,5.18
2018-01-28T09:34:50.162Z,7.10
2018-01-28T09:37:17.059Z,4.82
2018-01-28T09:39:43.924Z,5.40
2018-01-28T09:42:10.776Z,5.20
2018-01-28T09:44:37.649Z,5.40
2018-01-28T09:47:04.522Z,6.25
2018-01-28T09:49:31.388Z,5.63
2018-01-28T09:51:58.335Z,5.03
2018-01-28T09:54:25.180Z,5.70
2018-01-28T09:56:52.105Z,5.68
2018-01-28T09:59:18.975Z,5.60
2018-01-28T10:01:45.853Z,5.53
2018-01-28T10:04:12.768Z,5.50
2018-01-28T10:06:39.617Z,5.33
2018-01-28T10:09:06.510Z,5.20
2018-01-28T10:11:33.407Z,5.78
2018-01-28T10:14:00.286Z,7.78
2018-01-28T10:16:27.185Z,5.93
2018-01-28T10:18:54.041Z,5.35
2018-01-28T10:21:20.954Z,4.93
2018-01-28T10:23:47.838Z,5.93
2018-01-28T10:26:14.704Z,18.40
2018-01-28T10:28:41.547Z,5.30
2018-01-28T10:31:08.402Z,5.30
2018-01-28T10:33:35.260Z,5.30
2018-01-28T10:36:02.141Z,5.20
2018-01-28T10:38:29.036Z,5.22
2018-01-28T10:40:55.900Z,6.12
2018-01-28T10:43:22.782Z,5.17
2018-01-28T10:45:49.646Z,4.43
2018-01-28T10:48:16.640Z,6.87
2018-01-28T10:50:43.534Z,5.60
2018-01-28T10:53:10.392Z,5.40
2018-01-28T10:55:37.252Z,4.12
2018-01-28T10:58:04.142Z,5.07
2018-01-28T11:00:31.045Z,5.12
2018-01-28T11:02:58.193Z,4.90
2018-01-28T11:05:25.066Z,4.15
2018-01-28T11:07:51.941Z,4.68
2018-01-28T11:10:18.801Z,5.10
2018-01-28T11:12:45.652Z,4.82
2018-01-28T11:15:12.533Z,5.30
2018-01-28T11:17:39.655Z,4.72
2018-01-28T11:20:06.542Z,4.65
2018-01-28T11:22:33.459Z,4.68
2018-01-28T11:25:00.317Z,5.07
2018-01-28T11:27:27.161Z,4.87
2018-01-28T11:29:54.049Z,4.77
2018-01-28T11:32:20.943Z,4.75
2018-01-28T11:34:47.832Z,4.60
2018-01-28T11:37:14.723Z,5.10
2018-01-28T11:39:41.590Z,4.60
2018-01-28T11:42:08.448Z,4.70
2018-01-28T11:44:35.293Z,5.10
2018-01-28T11:47:02.155Z,5.57
2018-01-28T11:49:29.021Z,4.95
2018-01-28T11:51:55.896Z,5.12
2018-01-28T11:54:22.782Z,4.60
2018-01-28T11:56:49.637Z,5.17
2018-01-28T11:59:16.488Z,5.30
2018-01-28T12:01:43.336Z,4.70
2018-01-28T12:04:10.225Z,5.00
2018-01-28T12:06:37.109Z,4.85
2018-01-28T12:09:04.001Z,8.27
2018-01-28T12:11:30.953Z,4.83
2018-01-28T12:13:57.830Z,4.67
2018-01-28T12:16:24.696Z,4.80
2018-01-28T12:18:51.564Z,4.60
2018-01-28T12:21:18.480Z,5.10
2018-01-28T12:23:45.321Z,5.30
2018-01-28T12:26:12.198Z,5.20
2018-01-28T12:28:39.088Z,4.90
2018-01-28T12:31:05.970Z,4.68
2018-01-28T12:33:32.852Z,4.82
2018-01-28T12:35:59.704Z,5.50
2018-01-28T12:38:26.556Z,5.15
2018-01-28T12:40:53.432Z,5.15
2018-01-28T12:43:20.324Z,4.80
2018-01-28T12:45:47.222Z,4.50
2018-01-28T12:48:14.182Z,5.07
2018-01-28T12:50:41.057Z,4.87
2018-01-28T12:53:07.962Z,5.30
2018-01-28T12:55:34.850Z,5.50
2018-01-28T12:58:01.712Z,5.57
2018-01-28T13:00:28.610Z,5.15
2018-01-28T13:02:55.509Z,5.10
2018-01-28T13:05:22.398Z,4.50
2018-01-28T13:07:49.316Z,9.63
2018-01-28T13:10:16.168Z,4.55
2018-01-28T13:12:43.020Z,5.12
2018-01-28T13:15:09.910Z,7.50
2018-01-28T13:17:36.810Z,5.45
2018-01-28T13:20:03.719Z,5.53
2018-01-28T13:22:30.624Z,5.20
2018-01-28T13:24:57.472Z,4.65
2018-01-28T13:27:24.381Z,5.27
2018-01-28T13:29:51.243Z,5.00
2018-01-28T13:32:18.158Z,5.37
2018-01-28T13:34:45.019Z,5.12
2018-01-28T13:37:11.902Z,5.57
2018-01-28T13:39:38.769Z,5.25
2018-01-28T13:42:05.614Z,5.40
2018-01-28T13:44:32.516Z,5.40
2018-01-28T13:46:59.402Z,5.55
2018-01-28T13:49:26.304Z,5.10
2018-01-28T13:51:53.176Z,4.97
2018-01-28T13:54:20.062Z,4.82
2018-01-28T13:56:46.953Z,5.65
2018-01-28T13:59:13.849Z,4.97
2018-01-28T14:01:40.710Z,4.90
2018-01-28T14:04:07.557Z,5.72
2018-01-28T14:06:34.446Z,5.12
2018-01-28T14:09:01.326Z,5.20
2018-01-28T14:11:28.216Z,5.67
2018-01-28T14:13:55.060Z,7.10
2018-01-28T14:16:21.938Z,7.60
2018-01-28T14:18:48.874Z,6.37
2018-01-28T14:21:15.724Z,6.35
2018-01-28T14:23:42.917Z,9.85
2018-01-28T14:26:09.811Z,7.40
2018-01-28T14:28:36.679Z,6.55
2018-01-28T14:31:03.552Z,7.35
2018-01-28T14:33:30.478Z,6.53
2018-01-28T14:35:57.391Z,6.22
2018-01-28T14:38:24.351Z,5.87
2018-01-28T14:40:51.196Z,5.80
2018-01-28T14:43:18.044Z,6.10
2018-01-28T14:45:44.912Z,6.30
2018-01-28T14:48:11.817Z,5.30
2018-01-28T14:50:38.740Z,6.47
2018-01-28T14:53:05.947Z,5.70
2018-01-28T14:55:32.866Z,5.20
2018-01-28T14:57:59.769Z,6.15
2018-01-28T15:00:26.658Z,6.30
2018-01-28T15:02:53.554Z,5.90
2018-01-28T15:05:20.429Z,5.62
2018-01-28T15:07:47.288Z,6.75
2018-01-28T15:10:14.161Z,6.55
2018-01-28T15:12:41.418Z,6.53
2018-01-28T15:15:08.281Z,6.60
2018-01-28T15:17:35.160Z,5.90
2018-01-28T15:20:02.004Z,5.20
2018-01-28T15:22:28.910Z,5.72
2018-01-28T15:24:55.785Z,5.57
2018-01-28T15:27:22.682Z,5.60
2018-01-28T15:29:49.533Z,5.28
2018-01-28T15:32:16.392Z,5.90
2018-01-28T15:34:43.287Z,6.47
2018-01-28T15:37:10.167Z,5.90
2018-01-28T15:39:37.072Z,5.62
2018-01-28T15:42:03.986Z,6.28
2018-01-28T15:44:30.885Z,5.82
2018-01-28T15:46:57.786Z,6.45
2018-01-28T15:49:25.501Z,5.83
2018-01-28T15:51:52.377Z,6.40
2018-01-28T15:54:19.293Z,6.28
2018-01-28T15:56:46.182Z,5.75
2018-01-28T15:59:13.163Z,5.75
2018-01-28T16:01:40.025Z,5.87
2018-01-28T16:04:06.975Z,5.55
2018-01-28T16:06:33.852Z,5.50
2018-01-28T16:09:00.749Z,5.72
2018-01-28T16:11:27.649Z,4.97
2018-01-28T16:13:54.774Z,5.40
2018-01-28T16:16:21.669Z,5.72
2018-01-28T16:18:48.587Z,6.00
2018-01-28T16:21:15.499Z,5.67
2018-01-28T16:23:42.382Z,5.73
2018-01-28T16:26:09.293Z,5.40
2018-01-28T16:28:36.209Z,6.35
2018-01-28T16:31:03.083Z,5.93
2018-01-28T16:33:30.003Z,5.80
2018-01-28T16:35:56.921Z,6.25
2018-01-28T16:38:24.576Z,6.95
2018-01-28T16:40:51.467Z,6.90
2018-01-28T16:43:18.375Z,7.15
2018-01-28T16:45:45.252Z,6.80
2018-01-28T16:48:12.134Z,6.12
2018-01-28T16:50:39.027Z,6.23
2018-01-28T16:53:05.954Z,6.28
2018-01-28T16:55:32.849Z,6.10
2018-01-28T16:57:59.737Z,6.32
2018-01-28T17:00:26.628Z,5.90
2018-01-28T17:02:53.483Z,7.30
2018-01-28T17:05:20.400Z,6.70
2018-01-28T17:07:47.256Z,6.97
2018-01-28T17:10:14.157Z,7.50
2018-01-28T17:12:41.029Z,7.10
2018-01-28T17:15:07.884Z,6.57
2018-01-28T17:17:34.785Z,6.67
2018-01-28T17:20:01.655Z,6.70
2018-01-28T17:22:28.508Z,6.90
2018-01-28T17:24:55.375Z,7.50
2018-01-28T17:27:22.232Z,7.40
2018-01-28T17:29:49.142Z,8.15
2018-01-28T17:32:15.996Z,9.00
2018-01-28T17:34:42.916Z,8.15
2018-01-28T17:37:09.818Z,8.30
2018-01-28T17:39:37.023Z,8.65
2018-01-28T17:42:03.981Z,8.90
2018-01-28T17:44:30.962Z,8.20
2018-01-28T17:46:57.906Z,8.48
2018-01-28T17:49:24.930Z,8.70
2018-01-28T17:51:51.840Z,8.70
2018-01-28T17:54:19.119Z,8.30
2018-01-28T17:56:46.012Z,8.45
2018-01-28T17:59:12.922Z,9.60
2018-01-28T18:01:39.834Z,9.50
2018-01-28T18:04:06.783Z,10.00
2018-01-28T18:06:33.662Z,9.52
2018-01-28T18:09:00.600Z,8.80
2018-01-28T18:11:27.505Z,8.30
2018-01-28T18:13:54.446Z,8.50
2018-01-28T18:16:21.370Z,8.70
2018-01-28T18:18:48.302Z,8.73
2018-01-28T18:21:15.201Z,8.40
2018-01-28T18:23:42.064Z,8.40
2018-01-28T18:26:08.945Z,8.45
2018-01-28T18:28:35.803Z,8.20
2018-01-28T18:31:02.677Z,8.20
2018-01-28T18:33:29.532Z,8.20
2018-01-28T18:35:56.773Z,8.20
2018-01-28T18:38:23.656Z,8.67
2018-01-28T18:40:50.504Z,8.48
2018-01-28T18:43:17.352Z,8.40
2018-01-28T18:45:44.259Z,8.00
2018-01-28T18:48:11.161Z,8.15
2018-01-28T18:50:38.033Z,8.48
2018-01-28T18:53:04.931Z,8.57
2018-01-28T18:55:31.805Z,8.65
2018-01-28T18:57:58.694Z,8.50
2018-01-28T19:00:25.544Z,8.18
2018-01-28T19:02:52.473Z,10.17
2018-01-28T19:05:19.325Z,9.00
2018-01-28T19:07:46.207Z,9.35
2018-01-28T19:10:13.052Z,9.27
2018-01-28T19:12:39.941Z,11.75
2018-01-28T19:15:06.848Z,9.75
2018-01-28T19:17:33.724Z,10.00
2018-01-28T19:20:00.607Z,9.45
2018-01-28T19:22:27.453Z,9.65
2018-01-28T19:24:54.333Z,9.73
2018-01-28T19:27:21.237Z,10.00
2018-01-28T19:29:48.153Z,9.50
2018-01-28T19:32:15.047Z,10.20
2018-01-28T19:34:42.240Z,9.55
2018-01-28T19:37:09.109Z,10.30
2018-01-28T19:39:36.047Z,10.07
2018-01-28T19:42:02.944Z,10.50
2018-01-28T19:44:29.799Z,9.85
2018-01-28T19:46:56.685Z,10.30
2018-01-28T19:49:23.613Z,9.80
2018-01-28T19:51:50.854Z,9.80
2018-01-28T19:54:17.778Z,10.47
2018-01-28T19:56:44.679Z,10.05
2018-01-28T19:59:11.573Z,11.48
2018-01-28T20:01:38.740Z,9.02
2018-01-28T20:04:05.884Z,9.50
2018-01-28T20:06:32.748Z,8.90
2018-01-28T20:08:59.596Z,9.10
2018-01-28T20:11:26.457Z,9.35
2018-01-28T20:13:53.374Z,8.48
2018-01-28T20:16:20.228Z,8.70
2018-01-28T20:18:47.140Z,8.60
2018-01-28T20:21:14.085Z,9.18
2018-01-28T20:23:40.981Z,9.40
2018-01-28T20:26:07.856Z,8.50
2018-01-28T20:28:34.737Z,8.88
2018-01-28T20:31:01.605Z,13.15
2018-01-28T20:33:28.468Z,8.63
2018-01-28T20:35:55.312Z,8.55
2018-01-28T20:38:22.176Z,7.87
2018-01-28T20:40:49.049Z,7.80
2018-01-28T20:43:16.196Z,7.57
2018-01-28T20:45:43.047Z,7.40
2018-01-28T20:48:09.940Z,7.50
2018-01-28T20:50:36.800Z,7.25
2018-01-28T20:53:03.986Z,7.60
2018-01-28T20:55:30.893Z,7.10
2018-01-28T20:57:57.790Z,9.30
2018-01-28T21:00:24.644Z,6.72
2018-01-28T21:02:51.549Z,6.53
2018-01-28T21:05:18.704Z,6.00
2018-01-28T21:07:45.605Z,6.00
2018-01-28T21:10:12.470Z,7.05
2018-01-28T21:12:39.314Z,6.00
2018-01-28T21:15:06.218Z,5.10
2018-01-28T21:17:33.134Z,5.20
2018-01-28T21:20:00.001Z,5.70
2018-01-28T21:22:26.865Z,5.30
2018-01-28T21:24:53.853Z,4.80
2018-01-28T21:27:20.746Z,4.72
2018-01-28T21:29:47.609Z,4.40
2018-01-28T21:32:14.461Z,5.40
2018-01-28T21:34:41.357Z,4.62
2018-01-28T21:37:08.253Z,4.68
2018-01-28T21:39:35.165Z,4.32
2018-01-28T21:42:02.047Z,5.70
2018-01-28T21:44:28.901Z,5.70
2018-01-28T21:46:56.069Z,3.60
2018-01-28T21:49:22.949Z,3.50
2018-01-28T21:51:49.932Z,4.40
2018-01-28T21:54:16.805Z,3.22
2018-01-28T21:56:43.717Z,3.20
2018-01-28T21:59:10.598Z,3.20
2018-01-28T22:01:37.502Z,3.30
2018-01-28T22:04:04.549Z,3.30
2018-01-28T22:06:31.404Z,3.00
2018-01-28T22:08:58.330Z,2.62
2018-01-28T22:11:25.190Z,2.40
2018-01-28T22:13:52.354Z,2.40
2018-01-28T22:16:19.338Z,2.40
2018-01-28T22:18:46.234Z,2.30
2018-01-28T22:21:13.138Z,2.90
2018-01-28T22:23:40.043Z,2.60
2018-01-28T22:26:07.301Z,2.30
2018-01-28T22:28:34.176Z,2.00
2018-01-28T22:31:01.059Z,2.00
2018-01-28T22:33:27.945Z,2.30
2018-01-28T22:35:54.792Z,1.90
2018-01-28T22:38:21.660Z,1.85
2018-01-28T22:40:48.565Z,2.42
2018-01-28T22:43:15.441Z,2.22
2018-01-28T22:45:42.350Z,1.83
2018-01-28T22:48:09.208Z,1.62
2018-01-28T22:50:36.117Z,1.50
2018-01-28T22:53:02.998Z,1.55
2018-01-28T22:55:29.956Z,1.48
2018-01-28T22:57:56.869Z,1.60
2018-01-28T23:00:23.718Z,1.80
2018-01-28T23:02:50.645Z,1.60
2018-01-28T23:05:17.488Z,1.52
2018-01-28T23:07:44.351Z,1.60
2018-01-28T23:10:11.208Z,1.40
2018-01-28T23:12:38.088Z,1.70
2018-01-28T23:15:04.961Z,1.80
2018-01-28T23:17:31.839Z,2.72
2018-01-28T23:19:58.741Z,2.03
2018-01-28T23:22:25.638Z,1.30
2018-01-28T23:24:52.550Z,1.50
2018-01-28T23:27:19.449Z,1.42
2018-01-28T23:29:46.337Z,1.50
2018-01-28T23:32:13.261Z,1.40
2018-01-28T23:34:40.185Z,1.30
2018-01-28T23:37:07.090Z,1.30
2018-01-28T23:39:33.964Z,1.20
2018-01-28T23:42:00.843Z,1.35
2018-01-28T23:44:27.734Z,1.33
2018-01-28T23:46:54.654Z,1.30
2018-01-28T23:49:21.508Z,1.10
2018-01-28T23:51:48.398Z,1.15
2018-01-28T23:54:15.264Z,1.20
2018-01-28T23:56:42.137Z,1.10
2018-01-28T23:59:09.391Z,1.12
